CPX619 Details

Departure: Morgantown Municipal Airport (KMGW)
Arrival: Washington Dulles International Airport (KIAD)
Route: MOTME V144 ESL V4 MANNE


Current Weather Information
KMGW 230653Z AUTO 20004KT 10SM CLR 08/06 A2995 RMK AO2 SLP142 T00780056
KIAD 230652Z 00000KT 2SM R01R/2200VP6000FT BR SCT000 08/08 A2990 RMK AO2 TWR VIS 10 SLP125 T00830078 $